Time;durP1;ratioP1;P1;durP2;ratioP2;P2;SDS_P1;SDS_P2;PMS_P1;PMS_P2;Temp;Humidity;BMP_temperature;BMP_pressure;BME280_temperature;BME280_humidity;BME280_pressure;Samples;Min_cycle;Max_cycle;Signal;HPM_P1;HPM_P2
2022/12/28 10:11:27;;;;;;;585.90;242.87;;;;;;;;;;5028894;27;20691;-57
2022/12/28 10:13:57;;;;;;;518.93;140.97;;;;;;;;;;5003234;28;20224;-56
2022/12/28 10:16:25;;;;;;;596.20;152.70;;;;;;;;;;4994058;28;20257;-56
2022/12/28 10:18:51;;;;;;;671.10;170.00;;;;;;;;;;4998190;28;20297;-57
2022/12/28 10:21:19;;;;;;;594.03;137.40;;;;;;;;;;4987308;28;20285;-56
2022/12/28 10:23:46;;;;;;;570.93;124.70;;;;;;;;;;4992872;28;20492;-58
2022/12/28 10:26:15;;;;;;;700.80;174.63;;;;;;;;;;4996756;28;20578;-56
2022/12/28 10:28:50;;;;;;;566.70;136.63;;;;;;;;;;4995659;28;20717;-56
2022/12/28 10:31:29;;;;;;;612.47;138.70;;;;;;;;;;5009090;28;20198;-56
2022/12/28 10:33:55;;;;;;;546.47;124.43;;;;;;;;;;4999001;28;20719;-57
2022/12/28 10:36:22;;;;;;;642.30;151.03;;;;;;;;;;5000739;28;20228;-56
2022/12/28 10:38:50;;;;;;;561.70;117.17;;;;;;;;;;5006865;28;20247;-56
2022/12/28 10:41:18;;;;;;;605.30;128.60;;;;;;;;;;5009267;28;20273;-56
2022/12/28 10:43:49;;;;;;;479.30;101.50;;;;;;;;;;5005006;28;20204;-55
2022/12/28 10:46:17;;;;;;;683.20;154.37;;;;;;;;;;5005414;28;20188;-56
2022/12/28 10:48:49;;;;;;;460.37;99.70;;;;;;;;;;5022664;28;20646;-58
2022/12/28 10:51:16;;;;;;;581.33;128.57;;;;;;;;;;4999612;28;20700;-56
2022/12/28 10:53:45;;;;;;;637.97;138.10;;;;;;;;;;4996363;28;20400;-56
2022/12/28 10:56:20;;;;;;;646.43;143.10;;;;;;;;;;5008574;28;20322;-57
2022/12/28 10:58:47;;;;;;;598.50;131.77;;;;;;;;;;5008112;28;20175;-57
2022/12/28 11:01:13;;;;;;;653.50;144.60;;;;;;;;;;4999911;28;20215;-56
2022/12/28 11:03:44;;;;;;;540.57;109.23;;;;;;;;;;5003712;28;20216;-56
2022/12/28 11:06:13;;;;;;;443.10;86.90;;;;;;;;;;5002052;28;20215;-56
2022/12/28 11:08:39;;;;;;;460.70;94.60;;;;;;;;;;4995427;28;20452;-57
2022/12/28 11:11:06;;;;;;;575.57;127.17;;;;;;;;;;5000494;28;20308;-56
2022/12/28 11:13:33;;;;;;;527.13;109.73;;;;;;;;;;5009299;28;20510;-56
2022/12/28 11:15:59;;;;;;;633.17;132.47;;;;;;;;;;5009484;28;20223;-56
2022/12/28 11:18:25;;;;;;;628.93;130.67;;;;;;;;;;5014144;28;20245;-56
2022/12/28 11:20:52;;;;;;;507.63;101.03;;;;;;;;;;5006624;28;20238;-56
2022/12/28 11:23:23;;;;;;;492.90;97.70;;;;;;;;;;5008626;28;20584;-57
2022/12/28 11:25:49;;;;;;;502.23;99.67;;;;;;;;;;5008320;28;20185;-57
2022/12/28 11:28:18;;;;;;;534.50;112.67;;;;;;;;;;5003679;28;20214;-57
2022/12/28 11:30:48;;;;;;;555.20;118.83;;;;;;;;;;4991378;28;20801;-56
2022/12/28 11:33:33;;;;;;;610.67;134.17;;;;;;;;;;4969539;28;20224;-57
2022/12/28 11:36:00;;;;;;;836.23;209.77;;;;;;;;;;4984965;28;20383;-58
2022/12/28 11:38:37;;;;;;;666.23;150.60;;;;;;;;;;4959928;28;20278;-56
2022/12/28 11:41:03;;;;;;;487.23;100.87;;;;;;;;;;4987242;28;20601;-56
2022/12/28 11:43:29;;;;;;;578.43;124.33;;;;;;;;;;4988430;28;21179;-57
2022/12/28 11:46:02;;;;;;;562.73;117.77;;;;;;;;;;4996121;28;20704;-57
2022/12/28 11:48:40;;;;;;;711.57;157.10;;;;;;;;;;4996883;28;20299;-57
2022/12/28 11:51:21;;;;;;;681.70;159.70;;;;;;;;;;4981855;28;20309;-56
2022/12/28 11:53:49;;;;;;;571.70;111.43;;;;;;;;;;4989702;28;20707;-56
2022/12/28 11:56:19;;;;;;;601.00;134.53;;;;;;;;;;4981387;28;20331;-56
2022/12/28 11:58:46;;;;;;;609.93;128.40;;;;;;;;;;4972501;28;20636;-59
2022/12/28 12:01:28;;;;;;;623.63;138.63;;;;;;;;;;4982347;28;20251;-56
2022/12/28 12:03:57;;;;;;;694.80;150.40;;;;;;;;;;4972415;28;20323;-57
2022/12/28 12:06:41;;;;;;;653.00;147.53;;;;;;;;;;4971271;28;21363;-56
2022/12/28 12:09:22;;;;;;;570.60;114.67;;;;;;;;;;4986156;28;20204;-55
2022/12/28 12:11:49;;;;;;;500.53;105.93;;;;;;;;;;4984398;28;20212;-55
2022/12/28 12:14:26;;;;;;;608.60;136.50;;;;;;;;;;4989183;28;20731;-55
2022/12/28 12:17:01;;;;;;;493.57;101.03;;;;;;;;;;4996764;28;20216;-56
2022/12/28 12:19:38;;;;;;;571.53;124.93;;;;;;;;;;4998622;28;21957;-56
2022/12/28 12:22:10;;;;;;;570.70;111.03;;;;;;;;;;4992612;28;20596;-55
2022/12/28 12:24:41;;;;;;;496.17;99.40;;;;;;;;;;4993608;28;20305;-55
2022/12/28 12:27:39;;;;;;;520.77;102.43;;;;;;;;;;5000054;28;20227;-56
2022/12/28 12:30:07;;;;;;;522.20;112.17;;;;;;;;;;4977755;28;20247;-55
2022/12/28 12:32:38;;;;;;;676.40;149.07;;;;;;;;;;4987893;28;20271;-56
2022/12/28 12:35:05;;;;;;;675.23;148.27;;;;;;;;;;4989968;28;20221;-54
2022/12/28 12:37:37;;;;;;;513.77;111.30;;;;;;;;;;4989598;28;20191;-55
2022/12/28 12:40:11;;;;;;;439.30;84.07;;;;;;;;;;4992037;28;20499;-56
2022/12/28 12:42:50;;;;;;;544.20;115.37;;;;;;;;;;4988858;28;20242;-54
2022/12/28 12:45:22;;;;;;;675.07;153.50;;;;;;;;;;4985681;28;20336;-57
2022/12/28 12:47:58;;;;;;;537.67;112.43;;;;;;;;;;4986914;28;20594;-57
2022/12/28 12:50:30;;;;;;;612.93;136.73;;;;;;;;;;4978188;28;20301;-57
2022/12/28 12:52:58;;;;;;;644.70;143.90;;;;;;;;;;4984725;28;20825;-56
2022/12/28 12:55:51;;;;;;;542.57;113.47;;;;;;;;;;4983011;28;23586;-57
2022/12/28 12:58:20;;;;;;;602.07;130.50;;;;;;;;;;4978499;28;20212;-56
2022/12/28 13:01:02;;;;;;;524.43;106.17;;;;;;;;;;4990731;28;20212;-57
2022/12/28 13:03:38;;;;;;;649.90;145.27;;;;;;;;;;4987873;28;20242;-57
2022/12/28 13:06:05;;;;;;;489.93;103.37;;;;;;;;;;4989015;28;20436;-58
2022/12/28 13:08:40;;;;;;;682.77;157.40;;;;;;;;;;4988617;28;20220;-57
2022/12/28 13:11:08;;;;;;;577.57;127.20;;;;;;;;;;4992867;28;20281;-56
2022/12/28 13:13:36;;;;;;;563.13;119.83;;;;;;;;;;4997372;28;20215;-57
2022/12/28 13:16:03;;;;;;;675.03;155.93;;;;;;;;;;4985942;28;20216;-56
2022/12/28 13:18:30;;;;;;;597.63;129.90;;;;;;;;;;4990911;28;20557;-57
2022/12/28 13:20:57;;;;;;;518.13;112.53;;;;;;;;;;4993032;28;20585;-56
2022/12/28 13:23:24;;;;;;;669.83;156.80;;;;;;;;;;4985204;28;20917;-57
2022/12/28 13:25:55;;;;;;;623.50;135.43;;;;;;;;;;4966754;28;20215;-57
2022/12/28 13:28:23;;;;;;;617.87;133.73;;;;;;;;;;4982283;28;21517;-57
2022/12/28 13:30:58;;;;;;;582.77;131.70;;;;;;;;;;4988404;28;20220;-57
2022/12/28 13:33:24;;;;;;;650.40;152.93;;;;;;;;;;4977822;28;20683;-57
2022/12/28 13:35:50;;;;;;;606.57;137.50;;;;;;;;;;4986196;28;20298;-57
2022/12/28 13:38:17;;;;;;;617.43;142.40;;;;;;;;;;4982860;28;20648;-57
2022/12/28 13:40:51;;;;;;;667.97;145.93;;;;;;;;;;4987151;28;20215;-56
2022/12/28 13:43:20;;;;;;;605.60;138.93;;;;;;;;;;4986118;28;20665;-56
2022/12/28 13:45:47;;;;;;;752.13;173.57;;;;;;;;;;4975647;28;20302;-56
2022/12/28 13:48:13;;;;;;;728.33;175.20;;;;;;;;;;4976313;28;20269;-56
2022/12/28 13:50:40;;;;;;;773.20;189.53;;;;;;;;;;4959162;28;20212;-56
2022/12/28 13:53:19;;;;;;;723.37;169.33;;;;;;;;;;4975411;28;20216;-56
2022/12/28 13:55:48;;;;;;;726.37;163.40;;;;;;;;;;4964095;28;20586;-56
2022/12/28 13:58:17;;;;;;;700.63;160.33;;;;;;;;;;4974996;28;20203;-56
2022/12/28 14:00:45;;;;;;;619.23;134.70;;;;;;;;;;4970253;28;20807;-56
2022/12/28 14:03:12;;;;;;;615.30;142.00;;;;;;;;;;4978473;28;20687;-56
2022/12/28 14:05:41;;;;;;;869.70;226.27;;;;;;;;;;4980976;28;20231;-57
2022/12/28 14:08:07;;;;;;;630.93;145.80;;;;;;;;;;4980274;28;20873;-57
2022/12/28 14:10:33;;;;;;;632.23;151.43;;;;;;;;;;4979445;28;20605;-56
2022/12/28 14:12:59;;;;;;;579.07;127.97;;;;;;;;;;4978870;28;20573;-56
2022/12/28 14:15:25;;;;;;;544.67;118.87;;;;;;;;;;4972394;28;20236;-56
2022/12/28 14:17:52;;;;;;;735.20;179.13;;;;;;;;;;4972632;28;20274;-56
2022/12/28 14:20:19;;;;;;;581.27;129.27;;;;;;;;;;4975556;28;20216;-56
2022/12/28 14:22:47;;;;;;;802.30;192.93;;;;;;;;;;4977898;28;20874;-56
2022/12/28 14:25:15;;;;;;;545.00;120.63;;;;;;;;;;4974897;28;20268;-57
2022/12/28 14:27:43;;;;;;;643.37;142.10;;;;;;;;;;4961370;28;20367;-56
2022/12/28 14:30:23;;;;;;;642.03;136.83;;;;;;;;;;4980655;28;20428;-57
2022/12/28 14:32:49;;;;;;;587.33;123.07;;;;;;;;;;4986883;28;20216;-57
2022/12/28 14:35:21;;;;;;;563.67;123.73;;;;;;;;;;4994521;28;20776;-57
2022/12/28 14:37:50;;;;;;;610.77;132.60;;;;;;;;;;4983829;28;21389;-57
2022/12/28 14:40:23;;;;;;;668.57;158.53;;;;;;;;;;4958684;28;20223;-57
2022/12/28 14:42:50;;;;;;;699.77;167.30;;;;;;;;;;4962900;28;20220;-57
2022/12/28 14:45:36;;;;;;;606.20;135.67;;;;;;;;;;4970976;28;20220;-57
2022/12/28 14:48:02;;;;;;;566.97;123.73;;;;;;;;;;4985159;28;21358;-57
2022/12/28 14:50:30;;;;;;;518.00;108.47;;;;;;;;;;4979336;28;20751;-56
2022/12/28 14:53:25;;;;;;;521.67;119.27;;;;;;;;;;4996096;28;20671;-57
2022/12/28 14:56:11;;;;;;;632.70;140.60;;;;;;;;;;4990184;28;20227;-57
2022/12/28 14:58:46;;;;;;;524.30;106.50;;;;;;;;;;5001910;28;20735;-57
2022/12/28 15:01:12;;;;;;;566.87;116.70;;;;;;;;;;4992675;28;20215;-56
2022/12/28 15:04:08;;;;;;;697.97;163.17;;;;;;;;;;4991751;28;20452;-57
2022/12/28 15:06:34;;;;;;;785.60;194.90;;;;;;;;;;4976948;28;20246;-57
2022/12/28 15:09:03;;;;;;;749.03;183.33;;;;;;;;;;4950685;28;20212;-56
2022/12/28 15:11:30;;;;;;;651.07;151.47;;;;;;;;;;4967913;28;20219;-57
2022/12/28 15:13:57;;;;;;;731.13;164.67;;;;;;;;;;4973096;28;20881;-57
2022/12/28 15:16:23;;;;;;;682.70;157.90;;;;;;;;;;4973487;28;20195;-57
2022/12/28 15:18:49;;;;;;;712.43;157.37;;;;;;;;;;4981310;28;20325;-57
2022/12/28 15:21:16;;;;;;;687.63;167.70;;;;;;;;;;4959170;28;22122;-56
2022/12/28 15:23:43;;;;;;;838.23;208.03;;;;;;;;;;4967284;28;20322;-57
2022/12/28 15:26:10;;;;;;;704.63;165.97;;;;;;;;;;4975009;28;20216;-57
2022/12/28 15:28:36;;;;;;;685.17;156.73;;;;;;;;;;4968802;28;20184;-57
2022/12/28 15:31:10;;;;;;;576.10;133.10;;;;;;;;;;4986357;28;20215;-57
2022/12/28 15:33:36;;;;;;;678.30;152.20;;;;;;;;;;4981739;28;20224;-56
2022/12/28 15:36:06;;;;;;;721.83;165.23;;;;;;;;;;4985235;28;20228;-57
2022/12/28 15:38:32;;;;;;;676.70;152.63;;;;;;;;;;4962749;28;20236;-56
2022/12/28 15:40:58;;;;;;;691.80;162.97;;;;;;;;;;4974649;28;20236;-57
2022/12/28 15:43:24;;;;;;;611.83;130.40;;;;;;;;;;4978018;28;20579;-57
2022/12/28 15:45:54;;;;;;;591.83;133.73;;;;;;;;;;4982331;28;20220;-57
2022/12/28 15:48:20;;;;;;;650.23;140.40;;;;;;;;;;4971564;28;20632;-57
2022/12/28 15:50:47;;;;;;;853.23;209.17;;;;;;;;;;4965010;28;20289;-57
2022/12/28 15:53:13;;;;;;;617.13;132.77;;;;;;;;;;4983703;28;20224;-57
2022/12/28 15:55:39;;;;;;;634.80;136.37;;;;;;;;;;4982446;28;20719;-57
2022/12/28 15:58:05;;;;;;;568.97;123.47;;;;;;;;;;4986724;28;20189;-57
2022/12/28 16:00:32;;;;;;;648.77;151.57;;;;;;;;;;4969029;28;20557;-57
2022/12/28 16:02:58;;;;;;;586.40;125.50;;;;;;;;;;4971758;28;20263;-57
2022/12/28 16:05:24;;;;;;;642.20;151.80;;;;;;;;;;4985635;28;20208;-57
2022/12/28 16:07:51;;;;;;;581.73;122.73;;;;;;;;;;4979388;28;20191;-57
2022/12/28 16:10:17;;;;;;;584.47;120.43;;;;;;;;;;4992129;28;20230;-57
2022/12/28 16:12:44;;;;;;;564.90;118.53;;;;;;;;;;4994854;28;20216;-57
2022/12/28 16:15:10;;;;;;;766.40;184.97;;;;;;;;;;4979430;28;22599;-57
2022/12/28 16:17:36;;;;;;;600.37;123.47;;;;;;;;;;4979971;28;20303;-57
2022/12/28 16:20:03;;;;;;;600.70;131.97;;;;;;;;;;4986580;28;20244;-56
2022/12/28 16:22:29;;;;;;;687.47;165.47;;;;;;;;;;4962004;28;20222;-57
2022/12/28 16:24:55;;;;;;;576.70;119.57;;;;;;;;;;4981344;28;20216;-57
2022/12/28 16:27:25;;;;;;;637.00;141.63;;;;;;;;;;4979606;28;20227;-57
2022/12/28 16:29:51;;;;;;;625.40;138.17;;;;;;;;;;4990825;28;20251;-57
2022/12/28 16:32:17;;;;;;;694.23;153.70;;;;;;;;;;4990135;28;20220;-57
2022/12/28 16:34:43;;;;;;;765.43;188.07;;;;;;;;;;4971195;28;20212;-57
2022/12/28 16:37:09;;;;;;;574.47;115.30;;;;;;;;;;4952519;28;20177;-57
2022/12/28 16:39:36;;;;;;;725.87;172.80;;;;;;;;;;4961687;28;21514;-57
2022/12/28 16:42:03;;;;;;;588.00;126.07;;;;;;;;;;4981753;28;20220;-57
2022/12/28 16:44:29;;;;;;;629.07;137.80;;;;;;;;;;4971543;28;20209;-57
2022/12/28 16:46:57;;;;;;;626.23;144.63;;;;;;;;;;4957599;28;20423;-57
2022/12/28 16:49:23;;;;;;;523.80;107.37;;;;;;;;;;4995017;28;20176;-56
2022/12/28 16:51:49;;;;;;;568.37;126.90;;;;;;;;;;4987403;28;22686;-59
2022/12/28 16:54:17;;;;;;;547.57;116.80;;;;;;;;;;4979102;28;20282;-57
2022/12/28 16:56:46;;;;;;;563.27;113.47;;;;;;;;;;4983894;28;20727;-58
2022/12/28 16:59:14;;;;;;;641.03;147.97;;;;;;;;;;4975198;28;20412;-56
2022/12/28 17:01:41;;;;;;;593.57;127.63;;;;;;;;;;4959673;28;20633;-57
2022/12/28 17:04:07;;;;;;;552.13;114.47;;;;;;;;;;4982078;28;20224;-56
2022/12/28 17:06:34;;;;;;;688.57;162.53;;;;;;;;;;4980144;28;20208;-56
2022/12/28 17:09:01;;;;;;;533.67;114.90;;;;;;;;;;4988651;28;20318;-56
2022/12/28 17:11:27;;;;;;;587.23;126.10;;;;;;;;;;4979764;28;20205;-56
2022/12/28 17:14:01;;;;;;;636.83;143.43;;;;;;;;;;4974054;28;20212;-59
2022/12/28 17:16:27;;;;;;;612.00;134.80;;;;;;;;;;4982040;28;20793;-56
2022/12/28 17:18:54;;;;;;;529.43;106.90;;;;;;;;;;4993217;28;20227;-56
2022/12/28 17:21:20;;;;;;;544.70;114.10;;;;;;;;;;4978767;28;20261;-56
2022/12/28 17:23:46;;;;;;;603.70;130.53;;;;;;;;;;4988603;28;20349;-56
2022/12/28 17:26:13;;;;;;;540.47;118.27;;;;;;;;;;4986507;28;20428;-57
2022/12/28 17:28:39;;;;;;;478.43;95.50;;;;;;;;;;5003889;28;20184;-56
2022/12/28 17:31:07;;;;;;;559.87;123.73;;;;;;;;;;4974978;28;20698;-56
2022/12/28 17:33:34;;;;;;;647.93;142.80;;;;;;;;;;4974825;28;20307;-56
2022/12/28 17:36:01;;;;;;;654.53;158.03;;;;;;;;;;4975674;28;20244;-56
2022/12/28 17:38:27;;;;;;;435.53;89.03;;;;;;;;;;4984295;28;20215;-56
2022/12/28 17:40:53;;;;;;;648.63;138.70;;;;;;;;;;4986012;28;21068;-56
2022/12/28 17:43:19;;;;;;;540.10;102.03;;;;;;;;;;4995567;28;20213;-56
2022/12/28 17:45:52;;;;;;;561.50;125.93;;;;;;;;;;4978384;28;20600;-56
2022/12/28 17:48:19;;;;;;;644.23;137.60;;;;;;;;;;4996807;28;20267;-55
2022/12/28 17:50:45;;;;;;;533.40;104.40;;;;;;;;;;4994340;28;20247;-57
2022/12/28 17:53:11;;;;;;;543.03;115.80;;;;;;;;;;4989837;28;20871;-55
2022/12/28 17:55:38;;;;;;;553.43;114.00;;;;;;;;;;4993477;28;20192;-55
2022/12/28 17:58:04;;;;;;;543.73;111.47;;;;;;;;;;4995553;28;20427;-55
2022/12/28 18:00:30;;;;;;;686.20;147.00;;;;;;;;;;4971887;28;20443;-55
2022/12/28 18:02:56;;;;;;;551.77;112.87;;;;;;;;;;4986821;28;20696;-56
2022/12/28 18:05:25;;;;;;;416.60;81.77;;;;;;;;;;5012989;28;20259;-56
2022/12/28 18:07:51;;;;;;;477.17;99.50;;;;;;;;;;5003811;28;20247;-56
2022/12/28 18:10:21;;;;;;;454.13;94.63;;;;;;;;;;5011262;28;20234;-55
2022/12/28 18:12:48;;;;;;;453.70;90.70;;;;;;;;;;5012972;28;20466;-55
2022/12/28 18:15:14;;;;;;;547.70;113.10;;;;;;;;;;5012669;28;20303;-55
2022/12/28 18:17:40;;;;;;;584.23;117.73;;;;;;;;;;5008190;28;20648;-55
2022/12/28 18:20:06;;;;;;;558.67;123.97;;;;;;;;;;4996433;28;20603;-55
2022/12/28 18:22:32;;;;;;;507.27;99.23;;;;;;;;;;5005163;28;20236;-55
2022/12/28 18:24:58;;;;;;;520.43;105.03;;;;;;;;;;5008530;28;20653;-55
2022/12/28 18:27:24;;;;;;;464.73;93.17;;;;;;;;;;5013949;28;20223;-55
2022/12/28 18:29:53;;;;;;;512.83;103.77;;;;;;;;;;5010821;28;20224;-56
2022/12/28 18:32:19;;;;;;;699.30;170.07;;;;;;;;;;4983520;28;20224;-56
2022/12/28 18:34:45;;;;;;;443.73;89.90;;;;;;;;;;5003725;28;20208;-56
2022/12/28 18:37:17;;;;;;;576.53;130.27;;;;;;;;;;4992700;28;20346;-56
2022/12/28 18:39:43;;;;;;;530.47;116.77;;;;;;;;;;4985911;28;20227;-56
2022/12/28 18:42:13;;;;;;;567.33;126.93;;;;;;;;;;4994300;28;20861;-56
2022/12/28 18:44:39;;;;;;;590.37;127.73;;;;;;;;;;5005299;28;20218;-56
2022/12/28 18:47:05;;;;;;;500.77;109.00;;;;;;;;;;4994185;28;20692;-56
2022/12/28 18:49:32;;;;;;;526.70;116.53;;;;;;;;;;5002040;28;20235;-56
2022/12/28 18:52:00;;;;;;;492.37;99.47;;;;;;;;;;5009362;28;20326;-56
2022/12/28 18:54:28;;;;;;;558.57;120.90;;;;;;;;;;5011726;28;20804;-57
2022/12/28 18:56:55;;;;;;;453.17;95.67;;;;;;;;;;5005456;28;20303;-56
2022/12/28 18:59:21;;;;;;;535.20;122.33;;;;;;;;;;5012069;28;20629;-56
2022/12/28 19:01:48;;;;;;;459.63;94.50;;;;;;;;;;4998964;28;20322;-56
2022/12/28 19:04:14;;;;;;;392.70;91.80;;;;;;;;;;5008284;28;20653;-57
2022/12/28 19:06:40;;;;;;;507.33;102.73;;;;;;;;;;5008518;28;20298;-55
2022/12/28 19:09:07;;;;;;;507.67;109.93;;;;;;;;;;5006665;28;20222;-56
2022/12/28 19:11:34;;;;;;;581.23;123.73;;;;;;;;;;4996072;28;20388;-56
2022/12/28 19:14:04;;;;;;;546.20;119.87;;;;;;;;;;4993429;28;20219;-56
2022/12/28 19:16:34;;;;;;;438.73;93.83;;;;;;;;;;4999869;28;20271;-56
2022/12/28 19:19:00;;;;;;;565.83;125.43;;;;;;;;;;4989694;28;20209;-56
2022/12/28 19:21:36;;;;;;;573.77;125.40;;;;;;;;;;4994043;28;20224;-56
2022/12/28 19:24:05;;;;;;;498.13;102.23;;;;;;;;;;5001335;28;20608;-56
2022/12/28 19:26:32;;;;;;;573.50;124.07;;;;;;;;;;4993508;28;20233;-56
2022/12/28 19:28:58;;;;;;;542.83;120.87;;;;;;;;;;4999244;28;20314;-56
2022/12/28 19:31:25;;;;;;;545.57;109.70;;;;;;;;;;4991765;28;20630;-56
2022/12/28 19:33:51;;;;;;;602.60;137.43;;;;;;;;;;4993243;28;20212;-56
2022/12/28 19:36:17;;;;;;;501.73;103.07;;;;;;;;;;5007145;28;20220;-55
2022/12/28 19:38:43;;;;;;;496.70;100.10;;;;;;;;;;5013590;28;20234;-56
2022/12/28 19:41:12;;;;;;;524.90;110.43;;;;;;;;;;4993322;28;20277;-55
2022/12/28 19:43:38;;;;;;;619.60;139.50;;;;;;;;;;4990591;28;20208;-56
2022/12/28 19:46:10;;;;;;;527.73;107.63;;;;;;;;;;5010222;28;20318;-56
2022/12/28 19:48:36;;;;;;;531.57;106.27;;;;;;;;;;5012554;28;20204;-55
2022/12/28 19:51:02;;;;;;;428.00;96.00;;;;;;;;;;4998337;28;20470;-55
2022/12/28 19:53:28;;;;;;;565.77;125.10;;;;;;;;;;4993217;28;20228;-56
2022/12/28 19:56:15;;;;;;;597.73;132.70;;;;;;;;;;4993855;28;20238;-56
2022/12/28 19:58:43;;;;;;;583.57;123.87;;;;;;;;;;4999855;28;20357;-55
2022/12/28 20:01:14;;;;;;;474.93;96.47;;;;;;;;;;5008947;28;20220;-55
2022/12/28 20:03:41;;;;;;;451.30;94.67;;;;;;;;;;5001485;28;20552;-56
2022/12/28 20:06:18;;;;;;;466.53;94.97;;;;;;;;;;4995041;28;20725;-57
2022/12/28 20:08:48;;;;;;;560.17;114.80;;;;;;;;;;5001920;28;20207;-57
2022/12/28 20:11:14;;;;;;;485.30;94.57;;;;;;;;;;4995709;28;20277;-56
2022/12/28 20:13:41;;;;;;;555.13;118.80;;;;;;;;;;4996198;28;20199;-56
2022/12/28 20:16:08;;;;;;;584.97;121.87;;;;;;;;;;4992459;28;20596;-56
2022/12/28 20:18:34;;;;;;;545.07;120.37;;;;;;;;;;4997880;28;20446;-56
2022/12/28 20:21:05;;;;;;;532.20;114.27;;;;;;;;;;4995484;28;20239;-56
2022/12/28 20:23:34;;;;;;;554.20;124.03;;;;;;;;;;4990912;28;20267;-56
2022/12/28 20:26:00;;;;;;;506.37;102.60;;;;;;;;;;5000900;28;20232;-56
2022/12/28 20:28:26;;;;;;;498.23;105.80;;;;;;;;;;5000138;28;20193;-56
2022/12/28 20:30:53;;;;;;;503.63;111.20;;;;;;;;;;4994050;28;20262;-56
2022/12/28 20:33:19;;;;;;;527.53;113.57;;;;;;;;;;4998131;28;20212;-57
2022/12/28 20:35:59;;;;;;;584.90;125.30;;;;;;;;;;4987513;28;20754;-56
2022/12/28 20:38:26;;;;;;;534.87;111.37;;;;;;;;;;4989554;28;20411;-57
2022/12/28 20:44:00;;;;;;;537.77;112.83;;;;;;;;;;5000976;28;20738;-56
2022/12/28 20:46:27;;;;;;;540.67;109.53;;;;;;;;;;5000383;28;20258;-57
2022/12/28 20:48:53;;;;;;;541.07;119.70;;;;;;;;;;5001484;28;20665;-57
2022/12/28 20:51:19;;;;;;;516.97;114.30;;;;;;;;;;4985555;28;20552;-57
2022/12/28 20:53:45;;;;;;;504.20;108.70;;;;;;;;;;4997564;28;20244;-56
2022/12/28 20:56:12;;;;;;;652.10;148.33;;;;;;;;;;4978954;28;20735;-56
2022/12/28 20:58:38;;;;;;;479.93;97.93;;;;;;;;;;5005615;28;20239;-56
2022/12/28 21:01:05;;;;;;;597.63;128.13;;;;;;;;;;4971591;28;20231;-57
2022/12/28 21:03:31;;;;;;;591.70;130.83;;;;;;;;;;4989419;28;20274;-55
2022/12/28 21:05:57;;;;;;;580.53;124.77;;;;;;;;;;4984091;28;20227;-56
2022/12/28 21:08:23;;;;;;;498.17;106.50;;;;;;;;;;4967385;28;20208;-56
2022/12/28 21:10:49;;;;;;;737.47;184.67;;;;;;;;;;4974729;28;20890;-56
2022/12/28 21:13:15;;;;;;;612.93;136.47;;;;;;;;;;4978808;28;20920;-56
2022/12/28 21:15:42;;;;;;;611.00;147.13;;;;;;;;;;4994158;28;20915;-56
2022/12/28 21:18:08;;;;;;;624.43;151.87;;;;;;;;;;4982510;28;20215;-56
2022/12/28 21:20:34;;;;;;;577.37;127.23;;;;;;;;;;4985020;28;20228;-56
2022/12/28 21:23:00;;;;;;;525.00;108.57;;;;;;;;;;4988142;28;20284;-55
2022/12/28 21:25:26;;;;;;;582.67;123.50;;;;;;;;;;4955096;28;22843;-55
2022/12/28 21:27:52;;;;;;;570.30;127.57;;;;;;;;;;4977344;28;20370;-55
2022/12/28 21:30:18;;;;;;;592.57;128.77;;;;;;;;;;4981228;28;21211;-57
2022/12/28 21:32:48;;;;;;;520.43;106.30;;;;;;;;;;4971948;28;20256;-57
2022/12/28 21:35:14;;;;;;;612.93;151.57;;;;;;;;;;4979085;28;20291;-57
2022/12/28 21:37:43;;;;;;;600.73;135.10;;;;;;;;;;4987088;28;20606;-56
2022/12/28 21:40:12;;;;;;;580.23;128.70;;;;;;;;;;4990248;28;20293;-56
2022/12/28 21:42:38;;;;;;;588.97;126.20;;;;;;;;;;4990259;28;20323;-56
2022/12/28 21:45:04;;;;;;;572.00;121.57;;;;;;;;;;4991777;28;20234;-56
2022/12/28 21:47:30;;;;;;;625.30;139.90;;;;;;;;;;4993306;28;20220;-56
2022/12/28 21:49:57;;;;;;;584.00;128.20;;;;;;;;;;4988756;28;20231;-56
2022/12/28 21:52:23;;;;;;;562.73;120.13;;;;;;;;;;4989100;28;20184;-55
2022/12/28 21:54:49;;;;;;;716.83;170.17;;;;;;;;;;4962847;28;20727;-57
2022/12/28 21:57:15;;;;;;;531.60;119.60;;;;;;;;;;4990556;28;21492;-56
2022/12/28 21:59:42;;;;;;;719.07;167.13;;;;;;;;;;4986411;28;20216;-56
2022/12/28 22:07:41;;;;;;;535.43;113.17;;;;;;;;;;4982377;28;20271;-56
2022/12/28 22:12:52;;;;;;;535.43;114.57;;;;;;;;;;4990842;28;21048;-56
2022/12/28 22:18:05;;;;;;;532.47;110.13;;;;;;;;;;4993886;28;20238;-55
2022/12/28 22:20:33;;;;;;;591.73;123.13;;;;;;;;;;4974565;28;20216;-55
2022/12/28 22:22:59;;;;;;;539.70;116.70;;;;;;;;;;4990588;28;20219;-56
2022/12/28 22:25:27;;;;;;;485.23;105.43;;;;;;;;;;4985482;28;20254;-55
2022/12/28 22:27:53;;;;;;;534.83;111.47;;;;;;;;;;4989573;28;20224;-55
2022/12/28 22:30:20;;;;;;;639.00;140.90;;;;;;;;;;4995499;28;20578;-55
2022/12/28 22:32:46;;;;;;;629.30;134.70;;;;;;;;;;4985195;28;20222;-55
2022/12/28 22:35:15;;;;;;;680.23;157.50;;;;;;;;;;4983621;28;20236;-55
2022/12/28 22:37:41;;;;;;;624.00;137.17;;;;;;;;;;4970907;28;20683;-55
2022/12/28 22:40:08;;;;;;;593.20;122.40;;;;;;;;;;4994945;28;20238;-55
2022/12/28 22:42:35;;;;;;;632.17;126.47;;;;;;;;;;4983897;28;20235;-55
2022/12/28 22:45:01;;;;;;;671.33;143.60;;;;;;;;;;4994272;28;20227;-55
2022/12/28 22:47:27;;;;;;;533.77;109.57;;;;;;;;;;4984565;28;20227;-55
2022/12/28 22:49:54;;;;;;;649.57;149.50;;;;;;;;;;4980243;28;20220;-56
2022/12/28 22:52:20;;;;;;;623.43;135.73;;;;;;;;;;4981949;28;23446;-56
2022/12/28 22:54:46;;;;;;;650.67;145.80;;;;;;;;;;4975292;28;20232;-55
2022/12/28 22:57:13;;;;;;;771.80;187.50;;;;;;;;;;4976962;28;20298;-55
2022/12/28 22:59:39;;;;;;;578.40;124.90;;;;;;;;;;4980706;28;20321;-55
2022/12/28 23:02:05;;;;;;;600.53;128.53;;;;;;;;;;4973062;28;20750;-56
2022/12/28 23:04:32;;;;;;;593.07;127.97;;;;;;;;;;4982840;28;20228;-55
2022/12/28 23:06:58;;;;;;;498.60;100.60;;;;;;;;;;4986217;28;20641;-56
2022/12/28 23:09:24;;;;;;;591.30;131.97;;;;;;;;;;4994286;28;20251;-56
2022/12/28 23:11:51;;;;;;;521.73;101.90;;;;;;;;;;4982591;28;20577;-55
2022/12/28 23:17:06;;;;;;;503.57;103.50;;;;;;;;;;5011826;28;20243;-55
2022/12/28 23:27:51;;;;;;;488.73;103.87;;;;;;;;;;4992263;28;20223;-55
2022/12/28 23:30:18;;;;;;;607.67;141.97;;;;;;;;;;4992487;28;20307;-55
2022/12/28 23:32:48;;;;;;;542.07;114.77;;;;;;;;;;5006141;28;20628;-55
2022/12/28 23:35:14;;;;;;;560.30;120.70;;;;;;;;;;4998023;28;21719;-55
2022/12/28 23:37:40;;;;;;;554.57;123.80;;;;;;;;;;4996765;28;20270;-55
2022/12/28 23:40:11;;;;;;;447.87;94.83;;;;;;;;;;5003985;28;20224;-55
2022/12/28 23:42:40;;;;;;;474.30;108.17;;;;;;;;;;5009367;28;20261;-55
2022/12/28 23:45:07;;;;;;;544.23;132.50;;;;;;;;;;5004362;28;20213;-55
2022/12/28 23:47:34;;;;;;;519.87;110.40;;;;;;;;;;4999687;28;20304;-55
2022/12/28 23:50:00;;;;;;;435.03;82.70;;;;;;;;;;5004356;28;20220;-55
2022/12/28 23:52:26;;;;;;;554.57;113.17;;;;;;;;;;5005645;28;20180;-55
2022/12/28 23:54:52;;;;;;;459.77;91.80;;;;;;;;;;5004410;28;20224;-55
2022/12/28 23:57:19;;;;;;;617.93;141.80;;;;;;;;;;5001815;28;20234;-55
2022/12/28 23:59:45;;;;;;;516.10;108.30;;;;;;;;;;5004921;28;20216;-55
